Wetterdaten: Woche 25.01.21 - 31.01.21 (KW4)
Datum Zeit Temp. A. Feuchte A. Luftdruck Regen Wind Richtung Taupunkt Windchill Windben
25.01.2021 00:00 2,4 C 66 % 999,5 hPa 0,0 l/m 8,2 km/h N -3,3 C 0,7 C 25,8 km/h
25.01.2021 01:00 2,4 C 68 % 999,4 hPa 0,0 l/m 7,7 km/h N -2,9 C 1,3 C 22,9 km/h
25.01.2021 02:00 2,3 C 68 % 999,5 hPa 0,0 l/m 7,0 km/h N -3,0 C 1,7 C 20,9 km/h
25.01.2021 03:00 2,1 C 69 % 999,5 hPa 0,0 l/m 6,9 km/h N -3,0 C 1,5 C 21,3 km/h
25.01.2021 04:00 2,0 C 70 % 999,7 hPa 0,0 l/m 9,2 km/h N -2,8 C -0,5 C 23,7 km/h
25.01.2021 05:00 2,1 C 70 % 1000,0 hPa 0,0 l/m 7,7 km/h N -2,7 C 0,8 C 19,7 km/h
25.01.2021 06:00 2,2 C 70 % 1000,6 hPa 0,0 l/m 3,6 km/h N -2,8 C 2,2 C 12,1 km/h
25.01.2021 07:00 1,9 C 69 % 1000,9 hPa 0,0 l/m 2,3 km/h N -3,1 C 1,9 C 12,1 km/h
25.01.2021 08:00 1,9 C 70 % 1001,5 hPa 0,0 l/m 1,4 km/h N -3,1 C 1,9 C 10,4 km/h
25.01.2021 09:00 2,6 C 66 % 1001,6 hPa 0,0 l/m 4,9 km/h N -3,1 C 2,3 C 15,7 km/h
25.01.2021 10:00 3,2 C 65 % 1001,6 hPa 0,0 l/m 6,0 km/h N -2,8 C 2,9 C 14,9 km/h
25.01.2021 11:00 3,8 C 63 % 1001,7 hPa 0,0 l/m 5,0 km/h N -2,6 C 3,8 C 16,5 km/h
25.01.2021 12:00 4,3 C 61 % 1001,7 hPa 0,0 l/m 2,0 km/h N -2,5 C 4,3 C 13,3 km/h
25.01.2021 13:00 4,2 C 58 % 1001,9 hPa 0,0 l/m 2,5 km/h N -3,5 C 4,2 C 8,5 km/h
25.01.2021 14:00 4,9 C 52 % 1001,9 hPa 0,0 l/m 2,2 km/h N -4,2 C 4,9 C 15,7 km/h
25.01.2021 15:00 4,9 C 52 % 1002,4 hPa 0,0 l/m 2,1 km/h N -4,1 C 4,9 C 11,3 km/h
25.01.2021 16:00 4,1 C 53 % 1003,2 hPa 0,0 l/m 0,2 km/h N -4,8 C 4,1 C 2,0 km/h
25.01.2021 17:00 2,8 C 56 % 1004,0 hPa 0,0 l/m 0,0 km/h N -5,2 C 2,8 C 0,0 km/h
25.01.2021 18:00 0,9 C 62 % 1004,6 hPa 0,0 l/m 0,0 km/h N -5,7 C 0,9 C 0,0 km/h
25.01.2021 19:00 -0,2 C 69 % 1005,3 hPa 0,0 l/m 0,0 km/h N -5,2 C -0,2 C 0,4 km/h
25.01.2021 20:00 1,2 C 70 % 1005,6 hPa 0,0 l/m 0,1 km/h N -3,8 C 1,2 C 0,4 km/h
25.01.2021 21:00 1,5 C 68 % 1006,2 hPa 0,0 l/m 0,7 km/h N -3,7 C 1,5 C 4,4 km/h
25.01.2021 22:00 1,0 C 72 % 1007,0 hPa 0,0 l/m 0,4 km/h N -3,5 C 1,0 C 4,4 km/h
25.01.2021 23:00 0,8 C 76 % 1008,0 hPa 0,0 l/m 1,1 km/h N -3,0 C 0,8 C 8,4 km/h
26.01.2021 00:00 1,0 C 78 % 1008,6 hPa 0,0 l/m 4,3 km/h N -2,4 C 1,0 C 17,3 km/h
26.01.2021 01:00 0,6 C 81 % 1009,3 hPa 0,0 l/m 2,4 km/h N -2,2 C 0,6 C 13,3 km/h
26.01.2021 02:00 0,2 C 82 % 1009,8 hPa 0,0 l/m 5,3 km/h N -2,5 C 0,1 C 15,7 km/h
26.01.2021 03:00 -0,1 C 82 % 1010,1 hPa 0,0 l/m 2,7 km/h N -2,8 C -0,1 C 12,5 km/h
26.01.2021 04:00 -0,1 C 83 % 1010,4 hPa 0,0 l/m 5,7 km/h N -2,7 C -0,6 C 18,1 km/h
26.01.2021 05:00 0,1 C 81 % 1010,9 hPa 0,0 l/m 8,5 km/h N -2,9 C -2,0 C 20,5 km/h
26.01.2021 06:00 -0,1 C 79 % 1011,5 hPa 0,0 l/m 8,3 km/h N -3,3 C -2,0 C 19,7 km/h
26.01.2021 07:00 0,1 C 78 % 1012,3 hPa 0,0 l/m 7,9 km/h N -3,3 C -1,5 C 19,7 km/h
26.01.2021 08:00 0,3 C 77 % 1013,0 hPa 0,0 l/m 8,4 km/h N -3,3 C -1,7 C 20,9 km/h
26.01.2021 09:00 1,0 C 74 % 1013,6 hPa 0,0 l/m 10,0 km/h N -3,1 C -2,2 C 23,7 km/h
26.01.2021 10:00 1,5 C 69 % 1013,9 hPa 0,0 l/m 12,0 km/h N -3,6 C -3,3 C 29,4 km/h
26.01.2021 11:00 2,2 C 69 % 1013,5 hPa 0,0 l/m 12,3 km/h N -2,9 C -2,6 C 31,0 km/h
26.01.2021 12:00 2,8 C 68 % 1013,5 hPa 0,0 l/m 10,5 km/h N -2,6 C -0,7 C 25,8 km/h
26.01.2021 13:00 2,9 C 68 % 1012,8 hPa 0,0 l/m 10,0 km/h N -2,4 C -0,5 C 23,7 km/h
26.01.2021 14:00 3,1 C 68 % 1012,6 hPa 0,0 l/m 10,8 km/h N -2,2 C -0,5 C 31,0 km/h
26.01.2021 15:00 2,8 C 68 % 1012,6 hPa 0,0 l/m 8,8 km/h N -2,5 C 0,6 C 27,0 km/h
26.01.2021 16:00 2,2 C 73 % 1012,4 hPa 0,0 l/m 9,6 km/h N -2,1 C -0,6 C 29,8 km/h
26.01.2021 17:00 2,1 C 75 % 1012,3 hPa 0,0 l/m 11,1 km/h N -1,8 C -1,9 C 31,0 km/h
26.01.2021 18:00 2,1 C 77 % 1012,8 hPa 0,0 l/m 11,8 km/h N -1,6 C -2,5 C 32,6 km/h
26.01.2021 19:00 1,5 C 80 % 1013,5 hPa 0,0 l/m 11,2 km/h N -1,5 C -2,6 C 30,6 km/h
26.01.2021 20:00 0,8 C 82 % 1014,2 hPa 0,0 l/m 8,2 km/h N -1,9 C -1,0 C 18,9 km/h
26.01.2021 21:00 0,4 C 82 % 1014,8 hPa 0,0 l/m 4,4 km/h N -2,3 C 0,4 C 11,3 km/h
26.01.2021 22:00 0,4 C 81 % 1015,2 hPa 0,0 l/m 3,2 km/h N -2,4 C 0,4 C 11,7 km/h
26.01.2021 23:00 0,3 C 82 % 1015,5 hPa 0,0 l/m 1,7 km/h N -2,4 C 0,3 C 10,1 km/h
27.01.2021 00:00 0,4 C 82 % 1015,8 hPa 0,0 l/m 2,2 km/h N -2,3 C 0,4 C 9,7 km/h
27.01.2021 01:00 0,3 C 82 % 1016,1 hPa 0,0 l/m 0,3 km/h N -2,5 C 0,3 C 2,0 km/h
27.01.2021 02:00 0,2 C 82 % 1016,2 hPa 0,0 l/m 0,0 km/h N -2,5 C 0,2 C 0,0 km/h
27.01.2021 03:00 0,4 C 82 % 1016,0 hPa 0,0 l/m 0,0 km/h N -2,3 C 0,4 C 0,0 km/h
27.01.2021 04:00 0,3 C 82 % 1015,8 hPa 0,0 l/m 0,0 km/h N -2,4 C 0,3 C 0,0 km/h
27.01.2021 05:00 0,3 C 82 % 1015,8 hPa 0,0 l/m 0,0 km/h N -2,4 C 0,3 C 0,0 km/h
27.01.2021 06:00 0,3 C 82 % 1016,1 hPa 0,0 l/m 0,0 km/h N -2,5 C 0,3 C 0,0 km/h
27.01.2021 07:00 0,2 C 82 % 1016,2 hPa 0,0 l/m 0,0 km/h N -2,5 C 0,2 C 0,0 km/h
27.01.2021 08:00 0,2 C 83 % 1016,3 hPa 0,0 l/m 0,2 km/h N -2,4 C 0,2 C 1,6 km/h
27.01.2021 09:00 0,4 C 83 % 1016,6 hPa 0,0 l/m 3,1 km/h N -2,1 C 0,4 C 8,8 km/h
27.01.2021 10:00 1,1 C 83 % 1016,9 hPa 0,0 l/m 2,5 km/h N -1,5 C 1,1 C 9,6 km/h
27.01.2021 11:00 1,5 C 83 % 1016,5 hPa 0,0 l/m 5,9 km/h N -1,1 C 1,4 C 16,1 km/h
27.01.2021 12:00 2,3 C 80 % 1015,9 hPa 1,3 l/m 4,0 km/h N -0,8 C 2,3 C 17,3 km/h
27.01.2021 13:00 2,9 C 73 % 1015,4 hPa 1,3 l/m 5,6 km/h N -1,4 C 2,6 C 14,9 km/h
27.01.2021 14:00 3,0 C 72 % 1015,2 hPa 0,8 l/m 2,5 km/h N -1,5 C 3,0 C 12,1 km/h
27.01.2021 15:00 3,6 C 69 % 1015,2 hPa 1,0 l/m 0,7 km/h N -1,6 C 3,6 C 8,4 km/h
27.01.2021 16:00 3,3 C 68 % 1015,2 hPa 0,5 l/m 0,2 km/h N -2,1 C 3,3 C 3,2 km/h
27.01.2021 17:00 1,9 C 69 % 1015,1 hPa 0,0 l/m 0,0 km/h N -3,3 C 1,9 C 0,4 km/h
27.01.2021 18:00 -0,9 C 72 % 1015,1 hPa 0,0 l/m 0,0 km/h N -5,3 C -0,9 C 0,0 km/h
27.01.2021 19:00 -2,4 C 78 % 1015,0 hPa 0,0 l/m 0,0 km/h N -5,7 C -2,4 C 0,0 km/h
27.01.2021 20:00 -3,3 C 81 % 1014,8 hPa 0,0 l/m 0,0 km/h N -6,0 C -3,3 C 0,0 km/h
27.01.2021 21:00 -4,2 C 82 % 1014,8 hPa 0,0 l/m 0,0 km/h N -6,8 C -4,2 C 0,0 km/h
27.01.2021 22:00 -4,6 C 83 % 1014,8 hPa 0,0 l/m 0,0 km/h N -7,1 C -4,6 C 0,0 km/h
27.01.2021 23:00 -4,6 C 83 % 1014,6 hPa 0,0 l/m 0,0 km/h N -7,1 C -4,6 C 0,0 km/h
28.01.2021 00:00 -4,2 C 83 % 1014,4 hPa 0,0 l/m 0,0 km/h N -6,7 C -4,2 C 0,0 km/h
28.01.2021 01:00 -3,2 C 83 % 1014,0 hPa 0,0 l/m 0,0 km/h N -5,7 C -3,2 C 0,0 km/h
28.01.2021 02:00 -2,6 C 82 % 1013,7 hPa 0,0 l/m 0,0 km/h N -5,2 C -2,6 C 0,0 km/h
28.01.2021 03:00 -2,0 C 82 % 1013,3 hPa 0,0 l/m 0,0 km/h N -4,7 C -2,0 C 0,0 km/h
28.01.2021 04:00 -1,3 C 82 % 1012,7 hPa 0,0 l/m 0,0 km/h N -4,0 C -1,3 C 0,0 km/h
28.01.2021 05:00 -0,6 C 82 % 1012,3 hPa 0,0 l/m 0,0 km/h N -3,2 C -0,6 C 0,0 km/h
28.01.2021 06:00 -0,5 C 82 % 1012,2 hPa 0,0 l/m 0,0 km/h N -3,2 C -0,5 C 0,0 km/h
28.01.2021 07:00 -0,6 C 82 % 1011,9 hPa 0,0 l/m 0,0 km/h N -3,2 C -0,6 C 0,0 km/h
28.01.2021 08:00 0,0 C 82 % 1011,5 hPa 0,0 l/m 0,3 km/h N -2,6 C 0,0 C 4,8 km/h
28.01.2021 09:00 1,0 C 82 % 1011,0 hPa 0,0 l/m 0,0 km/h N -1,7 C 1,0 C 0,0 km/h
28.01.2021 10:00 2,2 C 82 % 1010,4 hPa 0,5 l/m 0,2 km/h N -0,6 C 2,2 C 5,2 km/h
28.01.2021 11:00 3,9 C 79 % 1009,5 hPa 0,5 l/m 0,2 km/h N 0,4 C 3,9 C 3,6 km/h
28.01.2021 12:00 5,0 C 73 % 1008,2 hPa 0,8 l/m 0,0 km/h N 0,5 C 5,0 C 0,0 km/h
28.01.2021 13:00 5,0 C 70 % 1007,0 hPa 0,3 l/m 0,0 km/h N -0,1 C 5,0 C 0,4 km/h
28.01.2021 14:00 4,6 C 71 % 1005,8 hPa 0,0 l/m 0,0 km/h N -0,2 C 4,6 C 0,8 km/h
28.01.2021 15:00 4,5 C 72 % 1004,5 hPa 0,0 l/m 0,0 km/h N -0,0 C 4,5 C 0,4 km/h
28.01.2021 16:00 3,9 C 76 % 1003,7 hPa 1,3 l/m 0,0 km/h N -0,0 C 3,9 C 0,0 km/h
28.01.2021 17:00 2,8 C 79 % 1003,0 hPa 2,3 l/m 0,0 km/h N -0,4 C 2,8 C 0,0 km/h
28.01.2021 18:00 2,1 C 82 % 1001,9 hPa 2,9 l/m 0,0 km/h N -0,7 C 2,1 C 0,0 km/h
28.01.2021 19:00 1,9 C 82 % 1001,3 hPa 2,6 l/m 0,0 km/h N -0,8 C 1,9 C 0,0 km/h
28.01.2021 20:00 2,2 C 82 % 1000,5 hPa 1,6 l/m 0,0 km/h N -0,5 C 2,2 C 0,0 km/h
28.01.2021 21:00 2,0 C 82 % 1000,3 hPa 0,5 l/m 0,0 km/h N -0,7 C 2,0 C 0,0 km/h
28.01.2021 22:00 1,6 C 82 % 1000,4 hPa 0,5 l/m 0,0 km/h N -1,1 C 1,6 C 0,0 km/h
28.01.2021 23:00 1,6 C 82 % 1000,8 hPa 0,5 l/m 0,0 km/h N -1,2 C 1,6 C 0,0 km/h
29.01.2021 00:00 1,7 C 82 % 1001,1 hPa 1,0 l/m 0,0 km/h N -1,1 C 1,7 C 0,0 km/h
29.01.2021 01:00 2,4 C 82 % 1001,8 hPa 0,0 l/m 0,2 km/h N -0,3 C 2,4 C 2,4 km/h
29.01.2021 02:00 4,2 C 82 % 1002,0 hPa 1,0 l/m 0,4 km/h N 1,4 C 4,2 C 4,4 km/h
29.01.2021 03:00 4,2 C 82 % 1002,0 hPa 1,8 l/m 1,3 km/h N 1,4 C 4,2 C 8,0 km/h
29.01.2021 04:00 4,1 C 82 % 1002,2 hPa 0,5 l/m 0,6 km/h N 1,3 C 4,1 C 7,2 km/h
29.01.2021 05:00 3,8 C 82 % 1001,3 hPa 0,5 l/m 2,3 km/h N 1,0 C 3,8 C 9,6 km/h
29.01.2021 06:00 3,9 C 83 % 1001,1 hPa 0,3 l/m 1,6 km/h N 1,3 C 3,9 C 8,1 km/h
29.01.2021 07:00 3,7 C 83 % 1001,5 hPa 0,0 l/m 0,0 km/h N 1,0 C 3,7 C 0,0 km/h
29.01.2021 08:00 3,5 C 82 % 1001,4 hPa 0,3 l/m 0,0 km/h N 0,8 C 3,5 C 0,0 km/h
29.01.2021 09:00 3,5 C 83 % 1000,8 hPa 1,8 l/m 0,0 km/h N 0,9 C 3,5 C 0,0 km/h
29.01.2021 10:00 4,0 C 83 % 1000,0 hPa 1,0 l/m 0,0 km/h N 1,4 C 4,0 C 0,4 km/h
29.01.2021 11:00 4,2 C 83 % 999,0 hPa 2,6 l/m 0,0 km/h N 1,6 C 4,2 C 0,8 km/h
29.01.2021 12:00 4,4 C 83 % 998,3 hPa 0,0 l/m 0,0 km/h N 1,8 C 4,4 C 1,6 km/h
29.01.2021 13:00 4,4 C 83 % 997,3 hPa 0,5 l/m 0,0 km/h N 1,8 C 4,4 C 0,0 km/h
29.01.2021 14:00 5,5 C 84 % 995,8 hPa 0,0 l/m 1,1 km/h N 2,9 C 5,5 C 8,4 km/h
29.01.2021 15:00 9,4 C 83 % 995,0 hPa 0,0 l/m 3,9 km/h N 6,7 C 9,4 C 18,1 km/h
29.01.2021 16:00 10,0 C 77 % 995,4 hPa 0,0 l/m 5,2 km/h N 6,1 C 10,0 C 23,4 km/h
29.01.2021 17:00 9,6 C 73 % 995,8 hPa 0,0 l/m 2,8 km/h N 5,1 C 9,6 C 18,1 km/h
29.01.2021 18:00 9,5 C 73 % 996,1 hPa 0,0 l/m 2,8 km/h N 4,9 C 9,5 C 14,9 km/h
29.01.2021 19:00 9,4 C 74 % 996,5 hPa 0,0 l/m 4,2 km/h N 5,1 C 9,4 C 24,1 km/h
29.01.2021 20:00 9,2 C 72 % 996,7 hPa 0,0 l/m 8,6 km/h N 4,5 C 7,7 C 32,2 km/h
29.01.2021 21:00 9,0 C 73 % 996,9 hPa 0,0 l/m 11,5 km/h N 4,3 C 5,6 C 32,6 km/h
29.01.2021 22:00 8,8 C 72 % 997,2 hPa 0,0 l/m 11,5 km/h N 4,0 C 5,5 C 33,8 km/h
29.01.2021 23:00 8,7 C 72 % 997,6 hPa 0,0 l/m 10,4 km/h N 3,9 C 6,0 C 31,8 km/h
30.01.2021 00:00 8,4 C 73 % 997,9 hPa 0,0 l/m 9,9 km/h N 3,8 C 6,0 C 27,0 km/h
30.01.2021 01:00 8,3 C 73 % 997,9 hPa 0,0 l/m 8,5 km/h N 3,8 C 6,8 C 28,6 km/h
30.01.2021 02:00 8,4 C 73 % 997,9 hPa 0,0 l/m 9,2 km/h N 3,9 C 6,3 C 26,1 km/h
30.01.2021 03:00 8,3 C 73 % 997,7 hPa 0,0 l/m 3,1 km/h N 3,6 C 8,3 C 16,1 km/h
30.01.2021 04:00 8,1 C 73 % 997,3 hPa 0,0 l/m 4,6 km/h N 3,5 C 7,9 C 22,1 km/h
30.01.2021 05:00 8,3 C 72 % 996,9 hPa 0,0 l/m 8,2 km/h N 3,5 C 7,0 C 29,8 km/h
30.01.2021 06:00 8,6 C 71 % 996,6 hPa 0,0 l/m 12,3 km/h N 3,5 C 4,7 C 41,0 km/h
30.01.2021 07:00 8,7 C 68 % 996,7 hPa 0,3 l/m 16,9 km/h N 3,2 C 2,8 C 47,5 km/h
30.01.2021 08:00 9,0 C 66 % 996,4 hPa 0,0 l/m 16,1 km/h N 2,9 C 3,4 C 43,0 km/h
30.01.2021 09:00 9,4 C 65 % 996,5 hPa 0,0 l/m 16,9 km/h N 3,2 C 3,7 C 45,5 km/h
30.01.2021 10:00 9,9 C 63 % 996,4 hPa 0,0 l/m 11,8 km/h N 3,0 C 6,5 C 38,6 km/h
30.01.2021 11:00 10,4 C 61 % 996,6 hPa 0,0 l/m 7,8 km/h N 3,2 C 9,3 C 33,0 km/h
30.01.2021 12:00 10,9 C 61 % 997,0 hPa 0,0 l/m 7,6 km/h N 3,6 C 9,8 C 31,4 km/h
30.01.2021 13:00 10,3 C 64 % 997,3 hPa 0,0 l/m 5,1 km/h N 3,7 C 10,1 C 31,0 km/h
30.01.2021 14:00 8,9 C 67 % 998,0 hPa 0,0 l/m 4,4 km/h N 3,1 C 8,9 C 24,5 km/h
30.01.2021 15:00 4,9 C 77 % 999,5 hPa 0,5 l/m 5,6 km/h N 1,3 C 4,6 C 15,7 km/h
30.01.2021 16:00 3,2 C 81 % 1000,5 hPa 0,8 l/m 3,4 km/h N 0,2 C 3,2 C 11,7 km/h
30.01.2021 17:00 1,1 C 82 % 1001,5 hPa 0,0 l/m 1,5 km/h N -1,7 C 1,1 C 9,7 km/h
30.01.2021 18:00 0,4 C 82 % 1001,7 hPa 0,0 l/m 4,5 km/h N -2,3 C 0,4 C 13,3 km/h
30.01.2021 19:00 0,1 C 82 % 1002,0 hPa 0,0 l/m 3,9 km/h N -2,6 C -0,1 C 12,9 km/h
30.01.2021 20:00 -0,1 C 82 % 1002,3 hPa 0,0 l/m 0,6 km/h N -2,8 C -0,1 C 6,4 km/h
30.01.2021 21:00 0,0 C 82 % 1002,0 hPa 0,0 l/m 1,7 km/h N -2,7 C 0,0 C 9,3 km/h
30.01.2021 22:00 -0,0 C 82 % 1002,1 hPa 0,0 l/m 0,8 km/h N -2,7 C -0,0 C 6,4 km/h
30.01.2021 23:00 -0,1 C 82 % 1002,6 hPa 0,0 l/m 0,4 km/h N -2,8 C -0,1 C 5,6 km/h
31.01.2021 00:00 -0,4 C 81 % 1003,0 hPa 0,0 l/m 0,1 km/h N -3,2 C -0,4 C 3,2 km/h
31.01.2021 01:00 -1,1 C 82 % 1003,1 hPa 0,0 l/m 0,3 km/h N -3,8 C -1,1 C 4,8 km/h
31.01.2021 02:00 -1,4 C 83 % 1003,6 hPa 0,0 l/m 0,4 km/h N -4,0 C -1,4 C 4,0 km/h
31.01.2021 03:00 -1,2 C 81 % 1003,8 hPa 0,0 l/m 0,4 km/h N -4,0 C -1,2 C 4,4 km/h
31.01.2021 04:00 -1,0 C 79 % 1004,1 hPa 0,0 l/m 0,3 km/h N -4,2 C -1,0 C 4,4 km/h
31.01.2021 05:00 -1,1 C 77 % 1004,3 hPa 0,0 l/m 0,0 km/h N -4,6 C -1,1 C 1,6 km/h
31.01.2021 06:00 -1,0 C 76 % 1004,5 hPa 0,0 l/m 0,1 km/h N -4,8 C -1,0 C 2,8 km/h
31.01.2021 07:00 -1,1 C 75 % 1005,1 hPa 0,0 l/m 0,0 km/h N -5,0 C -1,1 C 0,0 km/h
31.01.2021 08:00 -1,0 C 75 % 1005,7 hPa 0,0 l/m 0,0 km/h N -4,9 C -1,0 C 0,0 km/h
31.01.2021 09:00 -0,8 C 75 % 1005,7 hPa 0,0 l/m 0,0 km/h N -4,7 C -0,8 C 0,4 km/h
31.01.2021 10:00 -0,6 C 74 % 1005,9 hPa 0,0 l/m 0,0 km/h N -4,6 C -0,6 C 0,0 km/h
31.01.2021 11:00 0,2 C 73 % 1006,0 hPa 0,0 l/m 0,0 km/h N -4,1 C 0,2 C 0,8 km/h
31.01.2021 12:00 1,2 C 72 % 1005,9 hPa 0,5 l/m 0,0 km/h N -3,3 C 1,2 C 0,4 km/h
31.01.2021 13:00 1,6 C 71 % 1005,4 hPa 0,3 l/m 0,0 km/h N -3,1 C 1,6 C 1,2 km/h
31.01.2021 14:00 2,0 C 70 % 1005,0 hPa 0,0 l/m 0,3 km/h N -2,8 C 2,0 C 3,2 km/h
31.01.2021 15:00 2,2 C 71 % 1004,8 hPa 0,0 l/m 0,0 km/h N -2,5 C 2,2 C 0,0 km/h
31.01.2021 16:00 1,8 C 70 % 1004,7 hPa 0,0 l/m 0,0 km/h N -3,2 C 1,8 C 0,0 km/h
31.01.2021 17:00 1,1 C 71 % 1004,8 hPa 0,0 l/m 0,0 km/h N -3,7 C 1,1 C 0,0 km/h
31.01.2021 18:00 0,6 C 73 % 1005,0 hPa 0,0 l/m 0,0 km/h N -3,7 C 0,6 C 0,0 km/h
31.01.2021 19:00 0,2 C 76 % 1004,8 hPa 0,0 l/m 0,0 km/h N -3,7 C 0,2 C 0,0 km/h
31.01.2021 20:00 -0,6 C 77 % 1004,5 hPa 0,0 l/m 0,0 km/h N -4,2 C -0,6 C 0,0 km/h
31.01.2021 21:00 -1,7 C 79 % 1004,2 hPa 0,0 l/m 0,0 km/h N -4,9 C -1,7 C 0,0 km/h
31.01.2021 22:00 -2,6 C 81 % 1003,9 hPa 0,0 l/m 0,0 km/h N -5,4 C -2,6 C 0,0 km/h
31.01.2021 23:00 -3,3 C 82 % 1003,4 hPa 0,0 l/m 0,0 km/h N -6,0 C -3,3 C 0,0 km/h
Min-Datum _ 27.01.21 25.01.21 29.01.21 - 25.01.21 - 27.01.21 27.01.21 25.01.21
_ Min-Zeit 22:15 14:30 15:15 - 17:00 - 22:30 22:30 17:00
Minimum _ -4,7 C 49 % 994,8 hPa - 0,0 km/h - -7,1 C -4,7 C 0,0 km/h
Max-Datum _ 30.01.21 29.01.21 27.01.21 28.01.21 30.01.21 - 29.01.21 30.01.21 30.01.21
_ Max-Zeit 12:15 14:15 10:15 18:45 07:30 - 16:00 12:00 09:15
Maximum _ 11,2 C 84 % 1017,0 hPa 2,9 l/m 19,3 km/h
N
- 7,2 C 11,0 C 53,1 km/h
N
Durchschnitt _ 2,4 C 76 % 1005,8 hPa #33,0 l/m 3,2 km/h N -1,6 C 1,7 C 10,8 km/h